Peshastin, WA

9:54 PM PDT on July 25, 2016 (GMT -0700)
Mountain Home Lodge Leavenworth, WA | | Change Station
Active Advisory: Flash Flood Warning

Elev 2044 ft 47.57 °N, 120.65 °W | Updated 9 minutes ago

Clear
Clear
73.3 °F
Feels Like 77 °F
N
0.0
Wind Variable Wind from NE

Today
High -- | Low -- °F
--% Chance of Precip.
Yesterday
High -- | Low -- °F
Precip. -- in
Pressure 29.86 in
Visibility 10.0 miles
Clouds Clear
Heat Index 77 °F
Dew Point 54 °F
Humidity 52%
Rainfall 0.00 in
Snow Depth Not available.
5:32 AM 8:44 PM
Waning Gibbous, 59% visible
METAR KEAT 260355Z AUTO 31014KT 10SM CLR 31/11 A2989 RMK AO2 SLP109 T03110111
Pressure 29.86 in
Visibility 10.0 miles
Clouds Clear
Heat Index 77 °F
Dew Point 54 °F
Humidity 52%
Rainfall 0.00 in
Snow Depth Not available.
5:32 AM 8:44 PM
Waning Gibbous, 59% visible
METAR KEAT 260355Z AUTO 31014KT 10SM CLR 31/11 A2989 RMK AO2 SLP109 T03110111

10-Day Weather Forecast

Almanac

Astronomy

Jul. 25, 2016 Rise Set
Actual Time
Civil Twilight
Nautical Twilight
Astronomical Twilight
Moon
Length of Visible Light
Length of Day
Tomorrow will be .
, % of the Moon is Illuminated

Today's Extremes

State Highs State Lows

Community

WunderPhotos

Upload Photos

1,927,536 photos uploaded!

WunderBlog® & News

Nearby

Air Quality

  Air Quality AQ Index Pollutant
Not available.

Snow Depth

Station Depth Elevation

Earthquake Activity

City Distance Mag. Time & Date
Minimum magnitude displayed is 2.5.

Coastal Water Temperatures

Place Temperature

Stations

Nearby Weather Stations

Station Location Temp. Windchill Dew Point Humidity Wind Precip. Elev Updated Type
                   

Watches & Warnings

Flash Flood Warning
Issued: 9:20 PM PDT Jul. 25, 2016 – National Weather Service

... The Flash Flood Warning remains in effect until 1030 PM PDT for
northern Okanogan County...

At 913 PM PDT... Doppler radar indicated thunderstorms weakening over
the flood threat area. Radar also estimates around 3.5 inches of
rain has fallen. The primary threat will be Road washouts along
wickiup creek and sarsapkin creek. No flash flooding has been
reported yet... with local officials checking out this remote area.

Precautionary/preparedness actions...

Move to higher ground if needed... and beware aware of Road washouts.
Please report flooding to your local law enforcement agency when you
can do so safely.


Lat... Lon 4882 11971 4877 11968 4873 11968 4868 11974
      4871 11983 4879 11981